Time;durP1;ratioP1;P1;durP2;ratioP2;P2;SDS_P1;SDS_P2;PMS_P1;PMS_P2;Temp;Humidity;BMP_temperature;BMP_pressure;BME280_temperature;BME280_humidity;BME280_pressure;Samples;Min_cycle;Max_cycle;Signal;HPM_P1;HPM_P2
2022/12/08 00:01:48;;;;;;;;;;;;;;;-144.99;100.00;52676.38;5018930;23;20006;-73
2022/12/08 00:04:14;;;;;;;;;;;;;;;-144.99;100.00;52692.69;4995819;28;19942;-73
2022/12/08 00:09:28;;;;;;;;;;;;;;;-144.99;100.00;52643.78;4990816;28;19986;-73
2022/12/08 00:11:56;;;;;;;;;;;;;;;-144.99;100.00;52670.28;4991745;28;20289;-74
2022/12/08 00:14:23;;;;;;;;;;;;;;;-144.99;100.00;52684.53;4991831;28;20044;-73
2022/12/08 00:16:50;;;;;;;;;;;;;;;-144.99;100.00;52668.22;4988786;28;19935;-72
2022/12/08 00:19:16;;;;;;;;;;;;;;;-144.99;100.00;52668.22;4987340;28;20284;-73
2022/12/08 00:21:44;;;;;;;;;;;;;;;-144.99;100.00;52684.53;4990946;28;19973;-73
2022/12/08 00:24:11;;;;;;;;;;;;;;;-144.99;100.00;52668.22;4990472;28;20447;-73
2022/12/08 00:26:37;;;;;;;;;;;;;;;-144.99;100.00;52643.78;4989801;28;20335;-73
2022/12/08 00:29:04;;;;;;;;;;;;;;;-144.99;100.00;52694.72;4990746;28;19997;-76
2022/12/08 00:31:30;;;;;;;;;;;;;;;-144.99;100.00;52649.88;5005357;28;19946;-79
2022/12/08 00:33:57;;;;;;;;;;;;;;;-144.99;100.00;52717.16;4984898;28;20034;-73
2022/12/08 00:36:24;;;;;;;;;;;;;;;-144.99;100.00;52676.38;4991665;28;19950;-73
2022/12/08 00:38:51;;;;;;;;;;;;;;;-144.99;100.00;52643.78;4992791;28;20149;-74
2022/12/08 00:42:10;;;;;;;;;;;;;;;-144.99;100.00;52676.38;4986342;28;20466;-74
2022/12/08 00:44:06;;;;;;;;;;;;;;;-144.99;100.00;52664.16;4988534;28;20469;-72
2022/12/08 00:46:32;;;;;;;;;;;;;;;-144.99;100.00;52656.00;4991427;28;19938;-72
2022/12/08 00:48:59;;;;;;;;;;;;;;;-144.99;100.00;52619.31;4992026;28;19930;-71
2022/12/08 00:51:25;;;;;;;;;;;;;;;-144.99;100.00;52631.53;4992830;28;20018;-73
2022/12/08 00:53:53;;;;;;;;;;;;;;;-144.99;100.00;52651.94;4991722;28;20365;-73
2022/12/08 00:56:20;;;;;;;;;;;;;;;-144.99;100.00;52688.63;4991449;28;20213;-72
2022/12/08 00:58:46;;;;;;;;;;;;;;;-144.99;100.00;52651.94;4991619;28;20228;-73
2022/12/08 01:01:13;;;;;;;;;;;;;;;-144.99;100.00;52619.31;4988416;28;20386;-72
2022/12/08 01:03:40;;;;;;;;;;;;;;;-144.99;100.00;52668.22;4988485;28;19958;-74
2022/12/08 01:06:07;;;;;;;;;;;;;;;-144.99;100.00;52643.78;4988594;28;19948;-72
2022/12/08 01:08:34;;;;;;;;;;;;;;;-144.99;100.00;52611.16;4987737;28;20306;-73
2022/12/08 01:11:04;;;;;;;;;;;;;;;-144.99;100.00;52631.53;4987846;28;19933;-72
2022/12/08 01:13:30;;;;;;;;;;;;;;;-144.99;100.00;52651.94;4989662;28;20408;-71
2022/12/08 01:15:57;;;;;;;;;;;;;;;-144.99;100.00;52631.53;4988002;28;19936;-77
2022/12/08 01:18:23;;;;;;;;;;;;;;;-144.99;100.00;52651.94;4990622;28;19959;-70
2022/12/08 01:20:50;;;;;;;;;;;;;;;-144.99;100.00;52678.44;4988610;28;20034;-72
2022/12/08 01:23:16;;;;;;;;;;;;;;;-144.99;100.00;52662.13;4986178;28;20384;-71
2022/12/08 01:25:43;;;;;;;;;;;;;;;-144.99;100.00;52637.66;4989744;28;20264;-71
2022/12/08 01:28:11;;;;;;;;;;;;;;;-144.99;100.00;52668.22;4991475;28;19968;-75
2022/12/08 01:30:38;;;;;;;;;;;;;;;-144.99;100.00;52623.38;4989792;28;20318;-73
2022/12/08 01:33:04;;;;;;;;;;;;;;;-144.99;100.00;52670.28;4989329;28;20125;-72
2022/12/08 01:35:31;;;;;;;;;;;;;;;-144.99;100.00;52684.53;4988895;28;20515;-74
2022/12/08 01:37:57;;;;;;;;;;;;;;;-144.99;100.00;52664.16;4987431;28;20359;-73
2022/12/08 01:40:24;;;;;;;;;;;;;;;-144.99;100.00;52680.47;4990409;28;20232;-72
2022/12/08 01:42:51;;;;;;;;;;;;;;;-144.99;100.00;52676.38;5005161;28;20359;-74
2022/12/08 01:45:22;;;;;;;;;;;;;;;-144.99;100.00;52653.97;4994929;28;19982;-73
2022/12/08 01:47:50;;;;;;;;;;;;;;;-144.99;100.00;52656.00;4988579;28;19964;-72
2022/12/08 01:50:17;;;;;;;;;;;;;;;-144.99;100.00;52647.84;4992409;28;19967;-72
2022/12/08 01:52:46;;;;;;;;;;;;;;;-144.99;100.00;52664.16;4989401;28;20262;-73
2022/12/08 01:55:17;;;;;;;;;;;;;;;-144.99;100.00;52670.28;4985248;28;20049;-73
2022/12/08 01:57:46;;;;;;;;;;;;;;;-144.99;100.00;52660.09;4985540;28;19985;-73
2022/12/08 02:00:14;;;;;;;;;;;;;;;-144.99;100.00;52684.53;4988704;28;20462;-73
2022/12/08 02:02:46;;;;;;;;;;;;;;;-144.99;100.00;52643.78;4984546;28;19930;-73
2022/12/08 02:05:13;;;;;;;;;;;;;;;-144.99;100.00;52656.00;4988174;28;20026;-74
2022/12/08 02:07:40;;;;;;;;;;;;;;;-144.99;100.00;52639.69;4985903;28;20194;-75
2022/12/08 02:10:07;;;;;;;;;;;;;;;-144.99;100.00;52676.38;4988451;28;19940;-72
2022/12/08 02:12:33;;;;;;;;;;;;;;;-144.99;100.00;52704.94;4986373;28;19992;-73
2022/12/08 02:15:00;;;;;;;;;;;;;;;-144.99;100.00;52641.72;4988766;28;20474;-75
2022/12/08 02:17:35;;;;;;;;;;;;;;;-144.99;100.00;52639.69;5004625;28;19982;-73
2022/12/08 02:20:19;;;;;;;;;;;;;;;-144.99;100.00;52680.47;4981656;28;19987;-73
2022/12/08 02:22:52;;;;;;;;;;;;;;;-144.99;100.00;52631.53;4986695;28;19952;-73
2022/12/08 02:25:23;;;;;;;;;;;;;;;-144.99;100.00;52704.94;4988472;28;19963;-71
2022/12/08 02:27:58;;;;;;;;;;;;;;;-144.99;100.00;52651.94;4985729;28;19966;-73
2022/12/08 02:30:26;;;;;;;;;;;;;;;-144.99;100.00;52656.00;4986691;28;19992;-73
2022/12/08 02:33:19;;;;;;;;;;;;;;;-144.99;100.00;52633.59;4988112;28;20007;-73
2022/12/08 02:35:53;;;;;;;;;;;;;;;-144.99;100.00;52643.78;4986757;28;21499;-72
2022/12/08 02:38:24;;;;;;;;;;;;;;;-144.99;100.00;52623.38;4980876;28;20007;-75
2022/12/08 02:40:59;;;;;;;;;;;;;;;-144.99;100.00;52662.13;4983812;28;20510;-73
2022/12/08 02:43:29;;;;;;;;;;;;;;;-144.99;100.00;52668.22;4982852;28;20384;-74
2022/12/08 02:45:59;;;;;;;;;;;;;;;-144.99;100.00;52656.00;4986969;28;20359;-74
2022/12/08 02:48:26;;;;;;;;;;;;;;;-144.99;100.00;52676.38;4988037;28;20027;-72
2022/12/08 02:50:54;;;;;;;;;;;;;;;-144.99;100.00;52672.31;5001525;28;19960;-77
2022/12/08 02:53:20;;;;;;;;;;;;;;;-144.99;100.00;52633.59;4994993;28;19977;-72
2022/12/08 02:55:56;;;;;;;;;;;;;;;-144.99;100.00;52631.53;4987069;28;19994;-71
2022/12/08 02:58:29;;;;;;;;;;;;;;;-144.99;100.00;52631.53;4986385;28;19980;-70
2022/12/08 03:01:06;;;;;;;;;;;;;;;-144.99;100.00;52631.53;4985907;28;19948;-70
2022/12/08 03:03:40;;;;;;;;;;;;;;;-144.99;100.00;52621.34;4985896;28;19943;-73
2022/12/08 03:06:12;;;;;;;;;;;;;;;-144.99;100.00;52611.16;4988543;28;19975;-73
2022/12/08 03:08:46;;;;;;;;;;;;;;;-144.99;100.00;52643.78;4983985;28;19956;-72
2022/12/08 03:11:19;;;;;;;;;;;;;;;-144.99;100.00;52656.00;4985452;28;20054;-73
2022/12/08 03:13:46;;;;;;;;;;;;;;;-144.99;100.00;52631.53;4985302;28;19936;-73
2022/12/08 03:16:15;;;;;;;;;;;;;;;-144.99;100.00;52668.22;4984495;28;19944;-74
2022/12/08 03:18:45;;;;;;;;;;;;;;;-144.99;100.00;52686.59;4987019;28;19947;-73
2022/12/08 03:21:14;;;;;;;;;;;;;;;-144.99;100.00;52651.94;4986807;28;19983;-73
2022/12/08 03:23:42;;;;;;;;;;;;;;;-144.99;100.00;52660.09;4986448;28;19947;-73
2022/12/08 03:26:11;;;;;;;;;;;;;;;-144.99;100.00;52653.97;4984875;28;19983;-72
2022/12/08 03:28:38;;;;;;;;;;;;;;;-144.99;100.00;52647.84;4985513;28;20020;-73
2022/12/08 03:31:07;;;;;;;;;;;;;;;-144.99;100.00;52643.78;4987088;28;19987;-74
2022/12/08 03:33:35;;;;;;;;;;;;;;;-144.99;100.00;52625.44;4987068;28;19940;-72
2022/12/08 03:36:04;;;;;;;;;;;;;;;-144.99;100.00;52674.34;4984334;28;20002;-72
2022/12/08 03:38:38;;;;;;;;;;;;;;;-144.99;100.00;52660.09;4985890;28;20415;-75
2022/12/08 03:41:20;;;;;;;;;;;;;;;-144.99;100.00;52629.50;4983129;28;20278;-74
2022/12/08 03:43:47;;;;;;;;;;;;;;;-144.99;100.00;52656.00;4986458;28;20263;-72
2022/12/08 03:46:14;;;;;;;;;;;;;;;-144.99;100.00;52698.81;4986387;28;19973;-73
2022/12/08 03:48:40;;;;;;;;;;;;;;;-144.99;100.00;52668.22;4986795;28;19963;-73
2022/12/08 03:51:07;;;;;;;;;;;;;;;-144.99;100.00;52645.81;4980787;28;20038;-72
2022/12/08 03:53:33;;;;;;;;;;;;;;;-144.99;100.00;52643.78;4982005;28;19966;-71
2022/12/08 03:56:03;;;;;;;;;;;;;;;-144.99;100.00;52676.38;4984528;28;19985;-72
2022/12/08 03:58:29;;;;;;;;;;;;;;;-144.99;100.00;52643.78;4986434;28;19949;-74
2022/12/08 04:00:56;;;;;;;;;;;;;;;-144.99;100.00;52647.84;5005138;28;19944;-76
2022/12/08 04:03:22;;;;;;;;;;;;;;;-144.99;100.00;52651.94;4994724;28;20399;-73
2022/12/08 04:05:49;;;;;;;;;;;;;;;-144.99;100.00;52666.19;4986995;28;19937;-72
2022/12/08 04:08:15;;;;;;;;;;;;;;;-144.99;100.00;52635.63;4985254;28;19999;-73
2022/12/08 04:10:42;;;;;;;;;;;;;;;-144.99;100.00;52643.78;4984585;28;19995;-72
2022/12/08 04:13:10;;;;;;;;;;;;;;;-144.99;100.00;52594.84;4983601;28;19962;-73
2022/12/08 04:15:36;;;;;;;;;;;;;;;-144.99;100.00;52660.09;4985944;28;19967;-75
2022/12/08 04:18:03;;;;;;;;;;;;;;;-144.99;100.00;52668.22;4992727;28;20085;-73
2022/12/08 04:20:29;;;;;;;;;;;;;;;-144.99;100.00;52635.63;4991534;28;19947;-73
2022/12/08 04:22:56;;;;;;;;;;;;;;;-144.99;100.00;52643.78;4989995;28;20405;-72
2022/12/08 04:25:22;;;;;;;;;;;;;;;-144.99;100.00;52623.38;4985081;28;19936;-72
2022/12/08 04:27:49;;;;;;;;;;;;;;;-144.99;100.00;52598.94;4991144;28;19929;-75
2022/12/08 04:30:16;;;;;;;;;;;;;;;-144.99;100.00;52631.53;4991091;28;20349;-71
2022/12/08 04:32:43;;;;;;;;;;;;;;;-144.99;100.00;52631.53;4994231;28;19956;-73
2022/12/08 04:35:09;;;;;;;;;;;;;;;-144.99;100.00;52643.78;4991519;28;20370;-71
2022/12/08 04:37:36;;;;;;;;;;;;;;;-144.99;100.00;52660.09;4993463;28;19991;-71
2022/12/08 04:40:02;;;;;;;;;;;;;;;-144.99;100.00;52619.31;4992793;28;20053;-71
2022/12/08 04:42:29;;;;;;;;;;;;;;;-144.99;100.00;52643.78;4986985;28;19973;-72
2022/12/08 04:44:55;;;;;;;;;;;;;;;-144.99;100.00;52647.84;4987017;28;19946;-72
2022/12/08 04:47:23;;;;;;;;;;;;;;;-144.99;100.00;52651.94;4992214;28;20061;-71
2022/12/08 04:49:49;;;;;;;;;;;;;;;-144.99;100.00;52643.78;4992472;28;20006;-73
2022/12/08 04:52:16;;;;;;;;;;;;;;;-144.99;100.00;52637.66;4991320;28;20058;-72
2022/12/08 04:54:42;;;;;;;;;;;;;;;-144.99;100.00;52623.38;4987756;28;19936;-72
2022/12/08 04:57:09;;;;;;;;;;;;;;;-144.99;100.00;52668.22;4991550;28;20038;-73
2022/12/08 04:59:35;;;;;;;;;;;;;;;-144.99;100.00;52656.00;4988947;28;19983;-75
2022/12/08 05:02:02;;;;;;;;;;;;;;;-144.99;100.00;52660.09;4989164;28;19996;-75
2022/12/08 05:04:30;;;;;;;;;;;;;;;-144.99;100.00;52668.22;4993556;28;19942;-76
2022/12/08 05:06:56;;;;;;;;;;;;;;;-144.99;100.00;52668.22;5007294;28;20018;-76
2022/12/08 05:09:23;;;;;;;;;;;;;;;-144.99;100.00;52645.81;5003769;28;19942;-78
2022/12/08 05:11:49;;;;;;;;;;;;;;;-144.99;100.00;52635.63;4992779;28;19997;-74
2022/12/08 05:14:17;;;;;;;;;;;;;;;-144.99;100.00;52647.84;4985582;28;19964;-75
2022/12/08 05:16:44;;;;;;;;;;;;;;;-144.99;100.00;52635.63;4987877;28;19929;-73
2022/12/08 05:19:11;;;;;;;;;;;;;;;-144.99;100.00;52627.47;4990917;28;20342;-74
2022/12/08 05:21:38;;;;;;;;;;;;;;;-144.99;100.00;52619.31;4991326;28;20003;-75
2022/12/08 05:24:05;;;;;;;;;;;;;;;-144.99;100.00;52647.84;4989481;28;19948;-75
2022/12/08 05:26:32;;;;;;;;;;;;;;;-144.99;100.00;52680.47;4987212;28;20039;-73
2022/12/08 05:28:58;;;;;;;;;;;;;;;-144.99;100.00;52639.69;4989633;28;19963;-77
2022/12/08 05:31:25;;;;;;;;;;;;;;;-144.99;100.00;52639.69;4991075;28;20432;-75
2022/12/08 05:33:52;;;;;;;;;;;;;;;-144.99;100.00;52678.44;4990381;28;19929;-74
2022/12/08 05:36:18;;;;;;;;;;;;;;;-144.99;100.00;52639.69;4989668;28;20002;-74
2022/12/08 05:38:47;;;;;;;;;;;;;;;-144.99;100.00;52617.28;4989975;28;19964;-74
2022/12/08 05:41:14;;;;;;;;;;;;;;;-144.99;100.00;52651.94;4989334;28;20059;-75
2022/12/08 05:43:41;;;;;;;;;;;;;;;-144.99;100.00;52660.09;4988876;28;19946;-75
2022/12/08 05:46:07;;;;;;;;;;;;;;;-144.99;100.00;52633.59;4986702;28;19986;-75
2022/12/08 05:48:34;;;;;;;;;;;;;;;-144.99;100.00;52613.19;4987920;28;20002;-72
2022/12/08 05:51:01;;;;;;;;;;;;;;;-144.99;100.00;52651.94;4979847;28;20503;-75
2022/12/08 05:53:27;;;;;;;;;;;;;;;-144.99;100.00;52676.38;4984212;28;19933;-75
2022/12/08 05:55:55;;;;;;;;;;;;;;;-144.99;100.00;52696.78;4990038;28;20024;-76
2022/12/08 05:58:23;;;;;;;;;;;;;;;-144.99;100.00;52686.59;4988377;28;19984;-75
2022/12/08 06:00:49;;;;;;;;;;;;;;;-144.99;100.00;52676.38;4989979;28;20422;-75
2022/12/08 06:03:18;;;;;;;;;;;;;;;-144.99;100.00;52662.13;4982064;28;20385;-75
2022/12/08 06:05:45;;;;;;;;;;;;;;;-144.99;100.00;52668.22;4989529;28;19945;-73
2022/12/08 06:08:12;;;;;;;;;;;;;;;-144.99;100.00;52615.25;4988181;28;19926;-75
2022/12/08 06:10:39;;;;;;;;;;;;;;;-144.99;100.00;52603.00;4990174;28;20014;-73
2022/12/08 06:13:08;;;;;;;;;;;;;;;-144.99;100.00;52635.63;4982658;28;19958;-76
2022/12/08 06:15:34;;;;;;;;;;;;;;;-144.99;100.00;52627.47;5001475;28;19941;-76
2022/12/08 06:18:01;;;;;;;;;;;;;;;-144.99;100.00;52651.94;5005087;23;19948;-77
2022/12/08 06:20:28;;;;;;;;;;;;;;;-144.99;100.00;52619.31;5002614;28;20080;-76
2022/12/08 06:22:54;;;;;;;;;;;;;;;-144.99;100.00;52635.63;5005407;28;19940;-78
2022/12/08 06:25:21;;;;;;;;;;;;;;;-144.99;100.00;52643.78;5007406;28;19984;-76
2022/12/08 06:27:47;;;;;;;;;;;;;;;-144.99;100.00;52623.38;5003036;28;19942;-75
2022/12/08 06:30:15;;;;;;;;;;;;;;;-144.99;100.00;52631.53;5011137;28;19929;-76
2022/12/08 06:32:42;;;;;;;;;;;;;;;-144.99;100.00;52603.00;5011356;28;19979;-76
2022/12/08 06:35:09;;;;;;;;;;;;;;;-144.99;100.00;52660.09;5010144;28;19969;-77
2022/12/08 06:37:36;;;;;;;;;;;;;;;-144.99;100.00;52647.84;5011410;28;20025;-76
2022/12/08 06:40:02;;;;;;;;;;;;;;;-144.99;100.00;52615.25;5010732;28;19958;-76
2022/12/08 06:42:45;;;;;;;;;;;;;;;-144.99;100.00;52566.31;5009761;28;20004;-78
2022/12/08 06:45:12;;;;;;;;;;;;;;;-144.99;100.00;52607.09;5012268;28;19950;-76
2022/12/08 06:47:40;;;;;;;;;;;;;;;-144.99;100.00;52639.69;5009402;28;19952;-76
2022/12/08 06:50:07;;;;;;;;;;;;;;;-144.99;100.00;52627.47;5011964;28;20010;-76
2022/12/08 06:52:33;;;;;;;;;;;;;;;-144.99;100.00;52660.09;5011258;28;20035;-76
2022/12/08 06:55:00;;;;;;;;;;;;;;;-144.99;100.00;52623.38;5016722;28;20003;-77
2022/12/08 06:57:26;;;;;;;;;;;;;;;-144.99;100.00;52641.72;5020456;28;19962;-76
2022/12/08 06:59:53;;;;;;;;;;;;;;;-144.99;100.00;52651.94;5015262;28;19982;-77
2022/12/08 07:02:19;;;;;;;;;;;;;;;-144.99;100.00;52615.25;5011160;28;19965;-76
2022/12/08 07:04:47;;;;;;;;;;;;;;;-144.99;100.00;52647.84;5011992;28;19933;-76
2022/12/08 07:07:14;;;;;;;;;;;;;;;-144.99;100.00;52607.09;5009426;28;19951;-76
2022/12/08 07:09:40;;;;;;;;;;;;;;;-144.99;100.00;52619.31;5012043;28;19978;-76
2022/12/08 07:12:07;;;;;;;;;;;;;;;-144.99;100.00;52635.63;5012081;28;20063;-77
2022/12/08 07:14:33;;;;;;;;;;;;;;;-144.99;100.00;52615.25;5012521;28;20358;-77
2022/12/08 07:17:00;;;;;;;;;;;;;;;-144.99;100.00;52651.94;5010278;28;19968;-77
2022/12/08 07:19:27;;;;;;;;;;;;;;;-144.99;100.00;52662.13;5007335;28;20059;-77
2022/12/08 07:21:55;;;;;;;;;;;;;;;-144.99;100.00;52615.25;5012326;28;20348;-76
2022/12/08 07:24:23;;;;;;;;;;;;;;;-144.99;100.00;52639.69;5008800;28;20021;-76
2022/12/08 07:26:50;;;;;;;;;;;;;;;-144.99;100.00;52635.63;5010870;28;19950;-76
2022/12/08 07:29:17;;;;;;;;;;;;;;;-144.99;100.00;52627.47;5011423;28;19960;-75
2022/12/08 07:31:43;;;;;;;;;;;;;;;-144.99;100.00;52647.84;5011723;28;19943;-76
2022/12/08 07:34:11;;;;;;;;;;;;;;;-144.99;100.00;52680.47;5008846;28;19957;-76
2022/12/08 07:36:37;;;;;;;;;;;;;;;-144.99;100.00;52643.78;5015028;28;19942;-75
2022/12/08 07:39:05;;;;;;;;;;;;;;;-144.99;100.00;52651.94;5010586;28;19961;-77
2022/12/08 07:41:32;;;;;;;;;;;;;;;-144.99;100.00;52619.31;5007481;28;19936;-77
2022/12/08 07:44:01;;;;;;;;;;;;;;;-144.99;100.00;52684.53;5007074;28;20465;-77
2022/12/08 07:46:27;;;;;;;;;;;;;;;-144.99;100.00;52639.69;5008442;28;20337;-77
2022/12/08 07:48:55;;;;;;;;;;;;;;;-144.99;100.00;52615.25;5011587;28;19925;-77
2022/12/08 07:51:21;;;;;;;;;;;;;;;-144.99;100.00;52635.63;5016996;28;19933;-76
2022/12/08 07:53:48;;;;;;;;;;;;;;;-144.99;100.00;52619.31;5010915;28;20484;-76
2022/12/08 07:56:17;;;;;;;;;;;;;;;-144.99;100.00;52623.38;5007531;28;20033;-77
2022/12/08 07:58:45;;;;;;;;;;;;;;;-144.99;100.00;52668.22;5012430;28;19937;-76
2022/12/08 08:01:22;;;;;;;;;;;;;;;-144.99;100.00;52649.88;5017340;28;20203;-77
2022/12/08 08:03:48;;;;;;;;;;;;;;;-144.99;100.00;52631.53;5015224;28;19998;-76
2022/12/08 08:06:15;;;;;;;;;;;;;;;-144.99;100.00;52627.47;5006302;28;20481;-77
2022/12/08 08:08:41;;;;;;;;;;;;;;;-144.99;100.00;52615.25;5012057;28;19957;-77
2022/12/08 08:11:08;;;;;;;;;;;;;;;-144.99;100.00;52651.94;5013395;28;19960;-77
2022/12/08 08:13:37;;;;;;;;;;;;;;;-144.99;100.00;52607.09;5021131;28;20575;-77
2022/12/08 08:16:04;;;;;;;;;;;;;;;-144.99;100.00;52639.69;5029147;28;19954;-77
2022/12/08 08:18:31;;;;;;;;;;;;;;;-144.99;100.00;52639.69;5028289;28;20449;-77
2022/12/08 08:20:57;;;;;;;;;;;;;;;-144.99;100.00;52656.00;5030387;28;19990;-77
2022/12/08 08:23:24;;;;;;;;;;;;;;;-144.99;100.00;52647.84;5025552;28;19939;-76
2022/12/08 08:25:51;;;;;;;;;;;;;;;-144.99;100.00;52631.53;5029060;28;19957;-75
2022/12/08 08:28:17;;;;;;;;;;;;;;;-144.99;100.00;52586.69;5029577;28;19962;-76
2022/12/08 08:30:46;;;;;;;;;;;;;;;-144.99;100.00;52629.50;5029711;28;19954;-77
2022/12/08 08:33:13;;;;;;;;;;;;;;;-144.99;100.00;52623.38;5026306;28;19940;-77
2022/12/08 08:35:41;;;;;;;;;;;;;;;-144.99;100.00;52623.38;5020753;28;19989;-78
2022/12/08 08:38:07;;;;;;;;;;;;;;;-144.99;100.00;52619.31;5026871;28;19963;-77
2022/12/08 08:40:34;;;;;;;;;;;;;;;-144.99;100.00;52668.22;5029372;28;20030;-78
2022/12/08 08:43:01;;;;;;;;;;;;;;;-144.99;100.00;52651.94;5025480;28;19946;-78
2022/12/08 08:45:27;;;;;;;;;;;;;;;-144.99;100.00;52625.44;5023603;28;20458;-78
2022/12/08 08:47:56;;;;;;;;;;;;;;;-144.99;100.00;52631.53;5030478;28;19940;-77
2022/12/08 08:50:23;;;;;;;;;;;;;;;-144.99;100.00;52592.81;5033010;28;20489;-78
2022/12/08 08:52:49;;;;;;;;;;;;;;;-144.99;100.00;52625.44;5032880;28;19936;-78
2022/12/08 08:55:16;;;;;;;;;;;;;;;-144.99;100.00;52656.00;5032093;28;19936;-79
2022/12/08 08:57:42;;;;;;;;;;;;;;;-144.99;100.00;52596.88;5029782;28;19967;-78
2022/12/08 09:00:10;;;;;;;;;;;;;;;-144.99;100.00;52643.78;5032743;28;19948;-78
2022/12/08 09:02:37;;;;;;;;;;;;;;;-144.99;100.00;52625.44;5032728;28;20261;-77
2022/12/08 09:05:06;;;;;;;;;;;;;;;-144.99;100.00;52639.69;5028866;28;19932;-76
2022/12/08 09:07:32;;;;;;;;;;;;;;;-144.99;100.00;52611.16;5014681;28;20809;-76
2022/12/08 09:09:59;;;;;;;;;;;;;;;-144.99;100.00;52637.66;5013745;28;19970;-76
2022/12/08 09:12:25;;;;;;;;;;;;;;;-144.99;100.00;52656.00;5011404;28;19969;-77
2022/12/08 09:14:52;;;;;;;;;;;;;;;-144.99;100.00;52639.69;5015466;28;19999;-77
2022/12/08 09:17:19;;;;;;;;;;;;;;;-144.99;100.00;52647.84;5013511;28;20361;-76
2022/12/08 09:19:47;;;;;;;;;;;;;;;-144.99;100.00;52619.31;5016795;28;19956;-77
2022/12/08 09:22:16;;;;;;;;;;;;;;;-144.99;100.00;52594.84;5012929;28;20040;-77
2022/12/08 09:24:42;;;;;;;;;;;;;;;-144.99;100.00;52686.59;5012491;28;20039;-78
2022/12/08 09:27:09;;;;;;;;;;;;;;;-144.99;100.00;52611.16;5013479;28;19950;-77
2022/12/08 09:29:35;;;;;;;;;;;;;;;-144.99;100.00;52653.97;5013091;28;19987;-78
2022/12/08 09:32:02;;;;;;;;;;;;;;;-144.99;100.00;52578.53;5014026;28;20304;-78
2022/12/08 09:34:28;;;;;;;;;;;;;;;-144.99;100.00;52615.25;5013033;28;19963;-77
2022/12/08 09:36:55;;;;;;;;;;;;;;;-144.99;100.00;52656.00;5015326;28;19980;-80
2022/12/08 09:39:25;;;;;;;;;;;;;;;-144.99;100.00;52627.47;5015816;28;19960;-76
2022/12/08 09:41:56;;;;;;;;;;;;;;;-144.99;100.00;52649.88;5014699;28;19968;-77
2022/12/08 09:44:38;;;;;;;;;;;;;;;-144.99;100.00;52635.63;5001563;28;19988;-77
2022/12/08 09:47:09;;;;;;;;;;;;;;;-144.99;100.00;52631.53;5009993;28;19965;-77
2022/12/08 09:49:39;;;;;;;;;;;;;;;-144.99;100.00;52594.84;5014951;28;19983;-77
2022/12/08 09:52:12;;;;;;;;;;;;;;;-144.99;100.00;52635.63;5012634;28;19946;-76
2022/12/08 09:54:40;;;;;;;;;;;;;;;-144.99;100.00;52635.63;5014607;28;19937;-78
2022/12/08 09:57:13;;;;;;;;;;;;;;;-144.99;100.00;52594.84;5012133;28;20287;-76
2022/12/08 09:59:42;;;;;;;;;;;;;;;-144.99;100.00;52647.84;5008592;28;19959;-77
2022/12/08 10:02:18;;;;;;;;;;;;;;;-144.99;100.00;52623.38;5015271;28;20028;-76
2022/12/08 10:04:48;;;;;;;;;;;;;;;-144.99;100.00;52627.47;5015834;28;19971;-77
2022/12/08 10:07:19;;;;;;;;;;;;;;;-144.99;100.00;52627.47;5012302;28;20398;-76
2022/12/08 10:09:50;;;;;;;;;;;;;;;-144.99;100.00;52647.84;4995598;28;19962;-76
2022/12/08 10:12:20;;;;;;;;;;;;;;;-144.99;100.00;52578.53;4995797;28;19944;-77
2022/12/08 10:14:50;;;;;;;;;;;;;;;-144.99;100.00;52643.78;4996748;28;20009;-77
2022/12/08 10:17:20;;;;;;;;;;;;;;;-144.99;100.00;52615.25;5004496;28;19925;-79
2022/12/08 10:19:48;;;;;;;;;;;;;;;-144.99;100.00;52619.31;5017153;28;20021;-78
2022/12/08 10:22:20;;;;;;;;;;;;;;;-144.99;100.00;52590.78;5019062;28;20333;-77
2022/12/08 10:24:52;;;;;;;;;;;;;;;-144.99;100.00;52603.00;5014866;28;19948;-78
2022/12/08 10:27:19;;;;;;;;;;;;;;;-144.99;100.00;52615.25;5015506;28;19947;-77
2022/12/08 10:29:46;;;;;;;;;;;;;;;-144.99;100.00;52598.94;5007777;28;19952;-78
2022/12/08 10:32:16;;;;;;;;;;;;;;;-144.99;100.00;52619.31;5010876;28;20431;-78
2022/12/08 10:34:58;;;;;;;;;;;;;;;-144.99;100.00;52641.72;5013771;28;19976;-78
2022/12/08 10:37:26;;;;;;;;;;;;;;;-144.99;100.00;52607.09;5005629;28;19980;-78
2022/12/08 10:40:00;;;;;;;;;;;;;;;-144.99;100.00;52639.69;5012942;28;19960;-78
2022/12/08 10:42:32;;;;;;;;;;;;;;;-144.99;100.00;52643.78;5014303;28;19951;-77
2022/12/08 10:45:02;;;;;;;;;;;;;;;-144.99;100.00;52600.97;5014449;28;19945;-77
2022/12/08 10:47:30;;;;;;;;;;;;;;;-144.99;100.00;52623.38;5009338;28;20002;-77
2022/12/08 10:50:20;;;;;;;;;;;;;;;-144.99;100.00;52639.69;5014265;28;19926;-78
2022/12/08 10:52:53;;;;;;;;;;;;;;;-144.99;100.00;52619.31;5011326;28;19929;-77
2022/12/08 10:55:39;;;;;;;;;;;;;;;-144.99;100.00;52621.34;5007311;28;20478;-79
2022/12/08 10:58:24;;;;;;;;;;;;;;;-144.99;100.00;52643.78;5007760;28;19960;-77
2022/12/08 11:00:52;;;;;;;;;;;;;;;-144.99;100.00;52594.84;5010376;28;20010;-78
2022/12/08 11:03:22;;;;;;;;;;;;;;;-144.99;100.00;52647.84;5011970;28;19938;-77
2022/12/08 11:05:59;;;;;;;;;;;;;;;-144.99;100.00;52631.53;5014742;28;20028;-78
2022/12/08 11:08:26;;;;;;;;;;;;;;;-144.99;100.00;52635.63;5029040;28;19962;-77
2022/12/08 11:10:54;;;;;;;;;;;;;;;-144.99;100.00;52619.31;5024317;28;19963;-78
2022/12/08 11:13:29;;;;;;;;;;;;;;;-144.99;100.00;52600.97;5029662;28;19976;-79
2022/12/08 11:15:56;;;;;;;;;;;;;;;-144.99;100.00;52643.78;5029851;28;20006;-77
2022/12/08 11:18:28;;;;;;;;;;;;;;;-144.99;100.00;52631.53;5018583;28;19957;-77
2022/12/08 11:21:05;;;;;;;;;;;;;;;-144.99;100.00;52651.94;5013521;28;20054;-79
2022/12/08 11:23:50;;;;;;;;;;;;;;;-144.99;100.00;52619.31;5016440;28;19950;-77
2022/12/08 11:26:23;;;;;;;;;;;;;;;-144.99;100.00;52631.53;5020072;28;19940;-78
2022/12/08 11:28:50;;;;;;;;;;;;;;;-144.99;100.00;52615.25;5015703;28;19926;-77
2022/12/08 11:31:21;;;;;;;;;;;;;;;-144.99;100.00;52625.44;5016922;28;19986;-77
2022/12/08 11:33:48;;;;;;;;;;;;;;;-144.99;100.00;52615.25;5012906;28;19996;-77
2022/12/08 11:36:15;;;;;;;;;;;;;;;-144.99;100.00;52660.09;5005840;28;19942;-77
2022/12/08 11:38:44;;;;;;;;;;;;;;;-144.99;100.00;52613.19;5008530;28;20355;-76
2022/12/08 11:41:12;;;;;;;;;;;;;;;-144.99;100.00;52611.16;5001079;28;19940;-78
2022/12/08 11:43:44;;;;;;;;;;;;;;;-144.99;100.00;52629.50;5011339;28;19984;-77
2022/12/08 11:46:12;;;;;;;;;;;;;;;-144.99;100.00;52647.84;5010873;28;19925;-75
2022/12/08 11:48:44;;;;;;;;;;;;;;;-144.99;100.00;52635.63;5009931;28;19980;-76
2022/12/08 11:51:13;;;;;;;;;;;;;;;-144.99;100.00;52629.50;5009825;28;20004;-75
2022/12/08 11:53:43;;;;;;;;;;;;;;;-144.99;100.00;52603.00;5010208;28;20440;-76
2022/12/08 11:56:14;;;;;;;;;;;;;;;-144.99;100.00;52611.16;5010606;28;19982;-75
2022/12/08 11:58:45;;;;;;;;;;;;;;;-144.99;100.00;52647.84;5006065;28;19952;-75
2022/12/08 12:01:16;;;;;;;;;;;;;;;-144.99;100.00;52611.16;5009122;28;19943;-75
2022/12/08 12:03:46;;;;;;;;;;;;;;;-144.99;100.00;52615.25;5011850;28;20378;-76
2022/12/08 12:06:27;;;;;;;;;;;;;;;-144.99;100.00;52607.09;5012125;28;19964;-76
2022/12/08 12:09:00;;;;;;;;;;;;;;;-144.99;100.00;52651.94;5009563;28;19959;-75
2022/12/08 12:14:25;;;;;;;;;;;;;;;-144.99;100.00;52607.09;5008858;28;20319;-76
2022/12/08 12:17:02;;;;;;;;;;;;;;;-144.99;100.00;52603.00;5011485;28;20436;-76
2022/12/08 12:19:30;;;;;;;;;;;;;;;-144.99;100.00;52607.09;5001010;28;19959;-78
2022/12/08 12:22:11;;;;;;;;;;;;;;;-144.99;100.00;52651.94;5010999;28;19969;-77
2022/12/08 12:24:38;;;;;;;;;;;;;;;-144.99;100.00;52656.00;5027775;23;19991;-75
2022/12/08 12:27:07;;;;;;;;;;;;;;;-144.99;100.00;52623.38;4998434;28;20022;-78
2022/12/08 12:29:36;;;;;;;;;;;;;;;-144.99;100.00;52629.50;5003579;28;19946;-76
2022/12/08 12:32:04;;;;;;;;;;;;;;;-144.99;100.00;52631.53;5001737;28;20534;-77